sensor_id;sensor_type;location;lat;lon;timestamp;temperature;humidity
68511;SHT31;55512;50.102;19.958;2022-08-03T00:02:22;19.66;69.86
68511;SHT31;55512;50.102;19.958;2022-08-03T00:04:48;19.66;69.92
68511;SHT31;55512;50.102;19.958;2022-08-03T00:07:13;19.65;70.07
68511;SHT31;55512;50.102;19.958;2022-08-03T00:09:40;19.61;70.20
68511;SHT31;55512;50.102;19.958;2022-08-03T00:12:05;19.58;70.33
68511;SHT31;55512;50.102;19.958;2022-08-03T00:14:32;19.55;70.52
68511;SHT31;55512;50.102;19.958;2022-08-03T00:16:57;19.52;70.67
68511;SHT31;55512;50.102;19.958;2022-08-03T00:19:23;19.52;70.79
68511;SHT31;55512;50.102;19.958;2022-08-03T00:21:48;19.50;70.82
68511;SHT31;55512;50.102;19.958;2022-08-03T00:24:14;19.41;71.10
68511;SHT31;55512;50.102;19.958;2022-08-03T00:26:39;19.45;71.01
68511;SHT31;55512;50.102;19.958;2022-08-03T00:29:05;19.46;70.98
68511;SHT31;55512;50.102;19.958;2022-08-03T00:31:31;19.46;70.92
68511;SHT31;55512;50.102;19.958;2022-08-03T00:33:56;19.44;70.96
68511;SHT31;55512;50.102;19.958;2022-08-03T00:36:22;19.16;71.71
68511;SHT31;55512;50.102;19.958;2022-08-03T00:38:47;18.71;73.00
68511;SHT31;55512;50.102;19.958;2022-08-03T00:41:13;18.71;73.37
68511;SHT31;55512;50.102;19.958;2022-08-03T00:43:38;18.78;73.33
68511;SHT31;55512;50.102;19.958;2022-08-03T00:46:04;18.90;72.85
68511;SHT31;55512;50.102;19.958;2022-08-03T00:48:29;18.89;72.66
68511;SHT31;55512;50.102;19.958;2022-08-03T00:50:55;19.04;72.13
68511;SHT31;55512;50.102;19.958;2022-08-03T00:53:21;19.00;71.99
68511;SHT31;55512;50.102;19.958;2022-08-03T00:55:47;18.94;71.90
68511;SHT31;55512;50.102;19.958;2022-08-03T00:58:12;18.89;72.01
68511;SHT31;55512;50.102;19.958;2022-08-03T01:00:38;18.85;72.21
68511;SHT31;55512;50.102;19.958;2022-08-03T01:03:05;18.82;72.19
68511;SHT31;55512;50.102;19.958;2022-08-03T01:05:41;18.80;72.20
68511;SHT31;55512;50.102;19.958;2022-08-03T01:11:58;18.58;72.66
68511;SHT31;55512;50.102;19.958;2022-08-03T01:17:41;18.58;72.69
68511;SHT31;55512;50.102;19.958;2022-08-03T01:20:30;18.61;73.11
68511;SHT31;55512;50.102;19.958;2022-08-03T01:23:02;18.62;73.23
68511;SHT31;55512;50.102;19.958;2022-08-03T01:25:59;18.36;74.21
68511;SHT31;55512;50.102;19.958;2022-08-03T01:28:32;18.30;74.52
68511;SHT31;55512;50.102;19.958;2022-08-03T01:31:09;18.30;74.58
68511;SHT31;55512;50.102;19.958;2022-08-03T01:33:41;18.31;74.60
68511;SHT31;55512;50.102;19.958;2022-08-03T01:36:18;18.32;74.75
68511;SHT31;55512;50.102;19.958;2022-08-03T01:38:52;18.27;74.75
68511;SHT31;55512;50.102;19.958;2022-08-03T01:41:25;18.26;74.93
68511;SHT31;55512;50.102;19.958;2022-08-03T01:43:58;18.23;75.15
68511;SHT31;55512;50.102;19.958;2022-08-03T01:46:26;18.21;75.20
68511;SHT31;55512;50.102;19.958;2022-08-03T01:48:53;18.22;75.06
68511;SHT31;55512;50.102;19.958;2022-08-03T01:51:22;18.23;74.76
68511;SHT31;55512;50.102;19.958;2022-08-03T01:53:49;18.26;74.58
68511;SHT31;55512;50.102;19.958;2022-08-03T01:56:18;18.35;74.31
68511;SHT31;55512;50.102;19.958;2022-08-03T01:58:47;18.35;74.25
68511;SHT31;55512;50.102;19.958;2022-08-03T02:01:15;18.33;74.20
68511;SHT31;55512;50.102;19.958;2022-08-03T02:03:43;18.31;74.21
68511;SHT31;55512;50.102;19.958;2022-08-03T02:06:11;18.27;74.42
68511;SHT31;55512;50.102;19.958;2022-08-03T02:08:39;18.24;74.58
68511;SHT31;55512;50.102;19.958;2022-08-03T02:11:08;18.22;74.53
68511;SHT31;55512;50.102;19.958;2022-08-03T02:13:35;18.17;74.60
68511;SHT31;55512;50.102;19.958;2022-08-03T02:16:02;18.15;74.59
68511;SHT31;55512;50.102;19.958;2022-08-03T02:18:33;18.12;74.70
68511;SHT31;55512;50.102;19.958;2022-08-03T02:21:00;18.06;74.60
68511;SHT31;55512;50.102;19.958;2022-08-03T02:23:28;18.01;74.60
68511;SHT31;55512;50.102;19.958;2022-08-03T02:25:59;17.93;74.65
68511;SHT31;55512;50.102;19.958;2022-08-03T02:28:31;17.86;74.69
68511;SHT31;55512;50.102;19.958;2022-08-03T02:31:02;17.87;74.56
68511;SHT31;55512;50.102;19.958;2022-08-03T02:33:35;17.87;74.58
68511;SHT31;55512;50.102;19.958;2022-08-03T02:36:05;17.84;74.64
68511;SHT31;55512;50.102;19.958;2022-08-03T02:38:35;17.78;74.75
68511;SHT31;55512;50.102;19.958;2022-08-03T02:41:06;17.72;74.97
68511;SHT31;55512;50.102;19.958;2022-08-03T02:43:39;17.69;75.07
68511;SHT31;55512;50.102;19.958;2022-08-03T02:46:07;17.66;75.19
68511;SHT31;55512;50.102;19.958;2022-08-03T02:48:37;17.63;75.26
68511;SHT31;55512;50.102;19.958;2022-08-03T02:51:06;17.55;75.36
68511;SHT31;55512;50.102;19.958;2022-08-03T02:53:33;17.52;75.46
68511;SHT31;55512;50.102;19.958;2022-08-03T02:56:00;17.51;75.51
68511;SHT31;55512;50.102;19.958;2022-08-03T02:58:29;17.52;75.50
68511;SHT31;55512;50.102;19.958;2022-08-03T03:00:56;17.51;75.62
68511;SHT31;55512;50.102;19.958;2022-08-03T03:03:22;17.49;75.68
68511;SHT31;55512;50.102;19.958;2022-08-03T03:05:50;17.50;75.63
68511;SHT31;55512;50.102;19.958;2022-08-03T03:08:18;17.50;75.62
68511;SHT31;55512;50.102;19.958;2022-08-03T03:10:45;17.44;75.72
68511;SHT31;55512;50.102;19.958;2022-08-03T03:13:13;17.39;75.84
68511;SHT31;55512;50.102;19.958;2022-08-03T03:15:41;17.35;75.91
68511;SHT31;55512;50.102;19.958;2022-08-03T03:18:09;17.30;75.96
68511;SHT31;55512;50.102;19.958;2022-08-03T03:20:37;17.25;76.00
68511;SHT31;55512;50.102;19.958;2022-08-03T03:23:04;17.22;76.00
68511;SHT31;55512;50.102;19.958;2022-08-03T03:25:32;17.19;76.06
68511;SHT31;55512;50.102;19.958;2022-08-03T03:27:59;17.18;76.15
68511;SHT31;55512;50.102;19.958;2022-08-03T03:30:27;17.18;76.31
68511;SHT31;55512;50.102;19.958;2022-08-03T03:32:54;17.19;76.37
68511;SHT31;55512;50.102;19.958;2022-08-03T03:35:21;17.20;76.46
68511;SHT31;55512;50.102;19.958;2022-08-03T03:37:46;17.21;76.57
68511;SHT31;55512;50.102;19.958;2022-08-03T03:40:12;17.24;76.76
68511;SHT31;55512;50.102;19.958;2022-08-03T03:42:39;17.25;76.90
68511;SHT31;55512;50.102;19.958;2022-08-03T03:45:05;17.32;76.90
68511;SHT31;55512;50.102;19.958;2022-08-03T03:47:33;17.36;76.97
68511;SHT31;55512;50.102;19.958;2022-08-03T03:50:00;17.41;76.94
68511;SHT31;55512;50.102;19.958;2022-08-03T03:52:28;17.45;77.06
68511;SHT31;55512;50.102;19.958;2022-08-03T03:54:54;17.46;77.07
68511;SHT31;55512;50.102;19.958;2022-08-03T03:57:19;17.48;77.00
68511;SHT31;55512;50.102;19.958;2022-08-03T03:59:45;17.52;76.88
68511;SHT31;55512;50.102;19.958;2022-08-03T04:02:11;17.52;76.78
68511;SHT31;55512;50.102;19.958;2022-08-03T04:04:36;17.52;76.70
68511;SHT31;55512;50.102;19.958;2022-08-03T04:07:23;17.51;76.76
68511;SHT31;55512;50.102;19.958;2022-08-03T04:10:13;17.53;76.81
68511;SHT31;55512;50.102;19.958;2022-08-03T04:13:06;17.58;76.81
68511;SHT31;55512;50.102;19.958;2022-08-03T04:15:34;17.63;76.79
68511;SHT31;55512;50.102;19.958;2022-08-03T04:18:03;17.67;76.71
68511;SHT31;55512;50.102;19.958;2022-08-03T04:20:36;17.69;76.70
68511;SHT31;55512;50.102;19.958;2022-08-03T04:23:04;17.75;76.64
68511;SHT31;55512;50.102;19.958;2022-08-03T04:25:32;17.82;76.52
68511;SHT31;55512;50.102;19.958;2022-08-03T04:28:02;17.90;76.37
68511;SHT31;55512;50.102;19.958;2022-08-03T04:30:30;18.00;76.23
68511;SHT31;55512;50.102;19.958;2022-08-03T04:33:00;18.10;76.11
68511;SHT31;55512;50.102;19.958;2022-08-03T04:35:28;18.17;75.99
68511;SHT31;55512;50.102;19.958;2022-08-03T04:37:58;18.27;75.83
68511;SHT31;55512;50.102;19.958;2022-08-03T04:40:35;18.34;75.69
68511;SHT31;55512;50.102;19.958;2022-08-03T04:43:05;18.42;75.51
68511;SHT31;55512;50.102;19.958;2022-08-03T04:45:34;18.48;75.46
68511;SHT31;55512;50.102;19.958;2022-08-03T04:48:01;18.56;75.46
68511;SHT31;55512;50.102;19.958;2022-08-03T04:50:28;18.64;75.34
68511;SHT31;55512;50.102;19.958;2022-08-03T04:52:54;18.71;75.30
68511;SHT31;55512;50.102;19.958;2022-08-03T04:55:30;18.77;75.33
68511;SHT31;55512;50.102;19.958;2022-08-03T04:57:58;18.84;75.25
68511;SHT31;55512;50.102;19.958;2022-08-03T05:00:25;18.93;75.12
68511;SHT31;55512;50.102;19.958;2022-08-03T05:02:51;19.01;75.00
68511;SHT31;55512;50.102;19.958;2022-08-03T05:05:18;19.09;74.92
68511;SHT31;55512;50.102;19.958;2022-08-03T05:07:44;19.18;74.69
68511;SHT31;55512;50.102;19.958;2022-08-03T05:10:10;19.25;74.56
68511;SHT31;55512;50.102;19.958;2022-08-03T05:12:38;19.33;74.48
68511;SHT31;55512;50.102;19.958;2022-08-03T05:15:04;19.41;74.39
68511;SHT31;55512;50.102;19.958;2022-08-03T05:17:30;19.45;74.36
68511;SHT31;55512;50.102;19.958;2022-08-03T05:19:58;19.51;74.24
68511;SHT31;55512;50.102;19.958;2022-08-03T05:22:24;19.58;74.13
68511;SHT31;55512;50.102;19.958;2022-08-03T05:24:51;19.61;74.08
68511;SHT31;55512;50.102;19.958;2022-08-03T05:27:16;19.65;73.98
68511;SHT31;55512;50.102;19.958;2022-08-03T05:29:45;19.70;73.91
68511;SHT31;55512;50.102;19.958;2022-08-03T05:32:13;19.75;73.73
68511;SHT31;55512;50.102;19.958;2022-08-03T05:34:39;19.81;73.67
68511;SHT31;55512;50.102;19.958;2022-08-03T05:37:05;19.86;73.62
68511;SHT31;55512;50.102;19.958;2022-08-03T05:39:31;19.92;73.59
68511;SHT31;55512;50.102;19.958;2022-08-03T05:41:58;19.98;73.56
68511;SHT31;55512;50.102;19.958;2022-08-03T05:44:24;20.05;73.53
68511;SHT31;55512;50.102;19.958;2022-08-03T05:46:50;20.11;73.43
68511;SHT31;55512;50.102;19.958;2022-08-03T05:49:16;20.17;73.32
68511;SHT31;55512;50.102;19.958;2022-08-03T05:51:42;20.23;73.38
68511;SHT31;55512;50.102;19.958;2022-08-03T05:54:08;20.30;73.30
68511;SHT31;55512;50.102;19.958;2022-08-03T05:56:34;20.37;73.23
68511;SHT31;55512;50.102;19.958;2022-08-03T05:58:59;20.40;73.09
68511;SHT31;55512;50.102;19.958;2022-08-03T06:01:25;20.45;73.11
68511;SHT31;55512;50.102;19.958;2022-08-03T06:03:51;20.51;73.10
68511;SHT31;55512;50.102;19.958;2022-08-03T06:06:16;20.59;73.07
68511;SHT31;55512;50.102;19.958;2022-08-03T06:08:43;20.68;72.96
68511;SHT31;55512;50.102;19.958;2022-08-03T06:11:10;20.77;72.85
68511;SHT31;55512;50.102;19.958;2022-08-03T06:13:37;20.85;72.79
68511;SHT31;55512;50.102;19.958;2022-08-03T06:16:03;20.93;72.69
68511;SHT31;55512;50.102;19.958;2022-08-03T06:18:30;21.02;72.59
68511;SHT31;55512;50.102;19.958;2022-08-03T06:20:55;21.12;72.43
68511;SHT31;55512;50.102;19.958;2022-08-03T06:23:21;21.24;72.21
68511;SHT31;55512;50.102;19.958;2022-08-03T06:25:47;21.34;72.03
68511;SHT31;55512;50.102;19.958;2022-08-03T06:28:12;21.45;71.85
68511;SHT31;55512;50.102;19.958;2022-08-03T06:30:39;21.59;71.73
68511;SHT31;55512;50.102;19.958;2022-08-03T06:33:06;21.71;71.59
68511;SHT31;55512;50.102;19.958;2022-08-03T06:35:32;21.81;71.37
68511;SHT31;55512;50.102;19.958;2022-08-03T06:37:57;21.90;71.06
68511;SHT31;55512;50.102;19.958;2022-08-03T06:40:23;21.96;70.79
68511;SHT31;55512;50.102;19.958;2022-08-03T06:42:56;22.01;70.72
68511;SHT31;55512;50.102;19.958;2022-08-03T06:45:24;22.07;70.51
68511;SHT31;55512;50.102;19.958;2022-08-03T06:50:30;22.22;70.42
68511;SHT31;55512;50.102;19.958;2022-08-03T06:52:57;22.31;70.16
68511;SHT31;55512;50.102;19.958;2022-08-03T06:55:22;22.40;70.09
68511;SHT31;55512;50.102;19.958;2022-08-03T06:57:48;22.47;69.91
68511;SHT31;55512;50.102;19.958;2022-08-03T07:00:14;22.52;69.82
68511;SHT31;55512;50.102;19.958;2022-08-03T07:02:45;22.59;69.76
68511;SHT31;55512;50.102;19.958;2022-08-03T07:05:11;22.66;69.62
68511;SHT31;55512;50.102;19.958;2022-08-03T07:07:37;22.73;69.41
68511;SHT31;55512;50.102;19.958;2022-08-03T07:10:04;22.78;69.29
68511;SHT31;55512;50.102;19.958;2022-08-03T07:12:31;22.87;69.17
68511;SHT31;55512;50.102;19.958;2022-08-03T07:14:59;22.95;68.95
68511;SHT31;55512;50.102;19.958;2022-08-03T07:17:26;22.98;68.74
68511;SHT31;55512;50.102;19.958;2022-08-03T07:19:53;23.03;68.66
68511;SHT31;55512;50.102;19.958;2022-08-03T07:22:19;23.12;68.58
68511;SHT31;55512;50.102;19.958;2022-08-03T07:24:44;23.27;68.34
68511;SHT31;55512;50.102;19.958;2022-08-03T07:27:11;23.42;68.10
68511;SHT31;55512;50.102;19.958;2022-08-03T07:29:37;23.60;67.77
68511;SHT31;55512;50.102;19.958;2022-08-03T07:32:03;23.79;67.44
68511;SHT31;55512;50.102;19.958;2022-08-03T07:34:29;23.99;67.08
68511;SHT31;55512;50.102;19.958;2022-08-03T07:36:56;24.20;66.57
68511;SHT31;55512;50.102;19.958;2022-08-03T07:39:21;24.38;66.12
68511;SHT31;55512;50.102;19.958;2022-08-03T07:41:47;24.54;65.58
68511;SHT31;55512;50.102;19.958;2022-08-03T07:44:15;24.71;65.09
68511;SHT31;55512;50.102;19.958;2022-08-03T07:46:44;24.85;64.71
68511;SHT31;55512;50.102;19.958;2022-08-03T07:49:09;25.01;64.36
68511;SHT31;55512;50.102;19.958;2022-08-03T07:51:35;25.17;63.91
68511;SHT31;55512;50.102;19.958;2022-08-03T07:54:00;25.32;63.58
68511;SHT31;55512;50.102;19.958;2022-08-03T07:56:27;25.47;63.34
68511;SHT31;55512;50.102;19.958;2022-08-03T07:58:52;25.67;62.85
68511;SHT31;55512;50.102;19.958;2022-08-03T08:01:19;25.85;62.50
68511;SHT31;55512;50.102;19.958;2022-08-03T08:03:46;26.01;62.02
68511;SHT31;55512;50.102;19.958;2022-08-03T08:06:12;26.18;61.52
68511;SHT31;55512;50.102;19.958;2022-08-03T08:08:38;26.33;60.78
68511;SHT31;55512;50.102;19.958;2022-08-03T08:11:05;26.47;60.37
68511;SHT31;55512;50.102;19.958;2022-08-03T08:13:31;26.55;60.35
68511;SHT31;55512;50.102;19.958;2022-08-03T08:15:57;26.65;59.98
68511;SHT31;55512;50.102;19.958;2022-08-03T08:18:23;26.76;59.48
68511;SHT31;55512;50.102;19.958;2022-08-03T08:20:49;26.88;59.24
68511;SHT31;55512;50.102;19.958;2022-08-03T08:23:15;26.99;58.74
68511;SHT31;55512;50.102;19.958;2022-08-03T08:25:47;27.06;58.29
68511;SHT31;55512;50.102;19.958;2022-08-03T08:28:20;27.11;58.22
68511;SHT31;55512;50.102;19.958;2022-08-03T08:30:46;27.13;57.87
68511;SHT31;55512;50.102;19.958;2022-08-03T08:33:13;27.16;57.47
68511;SHT31;55512;50.102;19.958;2022-08-03T08:35:38;27.18;57.23
68511;SHT31;55512;50.102;19.958;2022-08-03T08:38:04;27.24;56.94
68511;SHT31;55512;50.102;19.958;2022-08-03T08:40:29;27.30;56.66
68511;SHT31;55512;50.102;19.958;2022-08-03T08:42:55;27.31;56.60
68511;SHT31;55512;50.102;19.958;2022-08-03T08:45:20;27.31;56.23
68511;SHT31;55512;50.102;19.958;2022-08-03T08:47:46;27.32;56.08
68511;SHT31;55512;50.102;19.958;2022-08-03T08:50:16;27.30;55.92
68511;SHT31;55512;50.102;19.958;2022-08-03T08:52:46;27.30;55.72
68511;SHT31;55512;50.102;19.958;2022-08-03T08:55:18;27.28;55.79
68511;SHT31;55512;50.102;19.958;2022-08-03T08:57:48;27.26;55.58
68511;SHT31;55512;50.102;19.958;2022-08-03T09:00:19;27.25;55.20
68511;SHT31;55512;50.102;19.958;2022-08-03T09:02:45;27.24;55.05
68511;SHT31;55512;50.102;19.958;2022-08-03T09:05:11;27.24;54.80
68511;SHT31;55512;50.102;19.958;2022-08-03T09:07:40;27.19;54.28
68511;SHT31;55512;50.102;19.958;2022-08-03T09:10:08;27.12;54.28
68511;SHT31;55512;50.102;19.958;2022-08-03T09:12:43;27.07;54.27
68511;SHT31;55512;50.102;19.958;2022-08-03T09:15:15;27.00;54.00
68511;SHT31;55512;50.102;19.958;2022-08-03T09:17:53;26.95;53.81
68511;SHT31;55512;50.102;19.958;2022-08-03T09:20:22;26.97;53.84
68511;SHT31;55512;50.102;19.958;2022-08-03T09:25:35;26.99;53.75
68511;SHT31;55512;50.102;19.958;2022-08-03T09:30:34;27.01;53.80
68511;SHT31;55512;50.102;19.958;2022-08-03T09:33:02;27.05;53.84
68511;SHT31;55512;50.102;19.958;2022-08-03T09:35:41;27.08;53.89
68511;SHT31;55512;50.102;19.958;2022-08-03T09:40:43;27.18;53.28
68511;SHT31;55512;50.102;19.958;2022-08-03T09:43:10;27.18;52.97
68511;SHT31;55512;50.102;19.958;2022-08-03T09:45:37;27.20;52.80
68511;SHT31;55512;50.102;19.958;2022-08-03T09:48:36;27.20;52.86
68511;SHT31;55512;50.102;19.958;2022-08-03T09:50:59;27.23;52.58
68511;SHT31;55512;50.102;19.958;2022-08-03T09:53:27;27.24;52.34
68511;SHT31;55512;50.102;19.958;2022-08-03T09:55:56;27.28;51.91
68511;SHT31;55512;50.102;19.958;2022-08-03T09:58:25;27.34;51.86
68511;SHT31;55512;50.102;19.958;2022-08-03T10:00:58;27.41;51.50
68511;SHT31;55512;50.102;19.958;2022-08-03T10:03:28;27.49;51.19
68511;SHT31;55512;50.102;19.958;2022-08-03T10:06:13;27.56;51.09
68511;SHT31;55512;50.102;19.958;2022-08-03T10:08:46;27.60;50.59
68511;SHT31;55512;50.102;19.958;2022-08-03T10:11:39;27.66;50.05
68511;SHT31;55512;50.102;19.958;2022-08-03T10:14:08;27.72;49.93
68511;SHT31;55512;50.102;19.958;2022-08-03T10:16:43;27.78;49.75
68511;SHT31;55512;50.102;19.958;2022-08-03T10:19:10;27.83;49.69
68511;SHT31;55512;50.102;19.958;2022-08-03T10:21:38;27.88;49.40
68511;SHT31;55512;50.102;19.958;2022-08-03T10:24:07;27.93;49.12
68511;SHT31;55512;50.102;19.958;2022-08-03T10:26:37;27.98;48.79
68511;SHT31;55512;50.102;19.958;2022-08-03T10:29:07;28.04;48.50
68511;SHT31;55512;50.102;19.958;2022-08-03T10:31:39;28.11;48.36
68511;SHT31;55512;50.102;19.958;2022-08-03T10:34:21;28.20;48.05
68511;SHT31;55512;50.102;19.958;2022-08-03T10:36:50;28.36;47.57
68511;SHT31;55512;50.102;19.958;2022-08-03T10:39:21;28.56;47.24
68511;SHT31;55512;50.102;19.958;2022-08-03T10:41:51;28.68;47.06
68511;SHT31;55512;50.102;19.958;2022-08-03T10:44:22;28.60;47.18
68511;SHT31;55512;50.102;19.958;2022-08-03T10:46:50;28.68;46.71
68511;SHT31;55512;50.102;19.958;2022-08-03T10:49:17;28.75;46.45
68511;SHT31;55512;50.102;19.958;2022-08-03T10:51:45;28.81;46.30
68511;SHT31;55512;50.102;19.958;2022-08-03T10:57:46;28.97;45.25
68511;SHT31;55512;50.102;19.958;2022-08-03T11:00:16;29.02;44.78
68511;SHT31;55512;50.102;19.958;2022-08-03T11:05:51;29.16;45.40
68511;SHT31;55512;50.102;19.958;2022-08-03T11:08:32;29.22;45.66
68511;SHT31;55512;50.102;19.958;2022-08-03T11:11:02;29.30;45.85
68511;SHT31;55512;50.102;19.958;2022-08-03T11:19:10;29.64;45.25
68511;SHT31;55512;50.102;19.958;2022-08-03T11:43:49;29.61;43.41
68511;SHT31;55512;50.102;19.958;2022-08-03T11:45:57;29.69;42.82
68511;SHT31;55512;50.102;19.958;2022-08-03T11:48:46;29.70;42.12
68511;SHT31;55512;50.102;19.958;2022-08-03T11:51:24;29.69;42.27
68511;SHT31;55512;50.102;19.958;2022-08-03T11:53:56;29.70;42.34
68511;SHT31;55512;50.102;19.958;2022-08-03T11:56:27;29.74;42.09
68511;SHT31;55512;50.102;19.958;2022-08-03T11:58:55;29.80;41.66
68511;SHT31;55512;50.102;19.958;2022-08-03T12:01:22;29.87;41.57
68511;SHT31;55512;50.102;19.958;2022-08-03T12:03:49;29.97;41.08
68511;SHT31;55512;50.102;19.958;2022-08-03T12:06:16;30.04;40.98
68511;SHT31;55512;50.102;19.958;2022-08-03T12:08:43;30.07;40.42
68511;SHT31;55512;50.102;19.958;2022-08-03T12:11:11;30.12;40.31
68511;SHT31;55512;50.102;19.958;2022-08-03T12:16:09;30.24;40.14
68511;SHT31;55512;50.102;19.958;2022-08-03T12:18:42;30.32;39.81
68511;SHT31;55512;50.102;19.958;2022-08-03T12:21:08;30.41;39.67
68511;SHT31;55512;50.102;19.958;2022-08-03T12:23:36;30.50;39.52
68511;SHT31;55512;50.102;19.958;2022-08-03T12:26:04;30.58;39.72
68511;SHT31;55512;50.102;19.958;2022-08-03T12:28:34;30.67;39.66
68511;SHT31;55512;50.102;19.958;2022-08-03T12:31:02;30.75;38.84
68511;SHT31;55512;50.102;19.958;2022-08-03T12:33:53;30.78;38.71
68511;SHT31;55512;50.102;19.958;2022-08-03T12:36:26;30.85;38.87
68511;SHT31;55512;50.102;19.958;2022-08-03T12:38:59;30.87;38.35
68511;SHT31;55512;50.102;19.958;2022-08-03T12:41:38;30.81;37.76
68511;SHT31;55512;50.102;19.958;2022-08-03T12:44:05;30.72;37.87
68511;SHT31;55512;50.102;19.958;2022-08-03T12:46:37;30.69;37.78
68511;SHT31;55512;50.102;19.958;2022-08-03T12:49:06;30.73;37.97
68511;SHT31;55512;50.102;19.958;2022-08-03T12:54:08;31.21;37.96
68511;SHT31;55512;50.102;19.958;2022-08-03T12:59:41;31.48;36.80
68511;SHT31;55512;50.102;19.958;2022-08-03T13:02:25;31.47;37.07
68511;SHT31;55512;50.102;19.958;2022-08-03T13:04:53;31.64;37.08
68511;SHT31;55512;50.102;19.958;2022-08-03T13:07:19;31.84;36.84
68511;SHT31;55512;50.102;19.958;2022-08-03T13:09:47;32.00;36.25
68511;SHT31;55512;50.102;19.958;2022-08-03T13:12:18;32.10;36.46
68511;SHT31;55512;50.102;19.958;2022-08-03T13:14:47;32.27;36.43
68511;SHT31;55512;50.102;19.958;2022-08-03T13:17:15;32.62;35.94
68511;SHT31;55512;50.102;19.958;2022-08-03T13:19:41;32.80;35.98
68511;SHT31;55512;50.102;19.958;2022-08-03T13:22:20;32.94;34.85
68511;SHT31;55512;50.102;19.958;2022-08-03T13:24:49;32.74;34.75
68511;SHT31;55512;50.102;19.958;2022-08-03T13:27:20;32.76;35.17
68511;SHT31;55512;50.102;19.958;2022-08-03T13:29:45;32.94;35.36
68511;SHT31;55512;50.102;19.958;2022-08-03T13:32:11;33.02;35.37
68511;SHT31;55512;50.102;19.958;2022-08-03T13:34:37;33.16;34.70
68511;SHT31;55512;50.102;19.958;2022-08-03T13:37:03;33.25;34.90
68511;SHT31;55512;50.102;19.958;2022-08-03T13:39:29;33.42;34.90
68511;SHT31;55512;50.102;19.958;2022-08-03T13:41:55;33.63;34.69
68511;SHT31;55512;50.102;19.958;2022-08-03T13:44:21;33.80;34.42
68511;SHT31;55512;50.102;19.958;2022-08-03T13:46:47;33.96;33.88
68511;SHT31;55512;50.102;19.958;2022-08-03T13:49:13;34.08;33.63
68511;SHT31;55512;50.102;19.958;2022-08-03T13:51:38;34.07;32.59
68511;SHT31;55512;50.102;19.958;2022-08-03T13:54:05;33.90;32.32
68511;SHT31;55512;50.102;19.958;2022-08-03T13:56:31;33.82;32.29
68511;SHT31;55512;50.102;19.958;2022-08-03T13:58:57;33.83;32.26
68511;SHT31;55512;50.102;19.958;2022-08-03T14:01:23;33.81;32.10
68511;SHT31;55512;50.102;19.958;2022-08-03T14:03:49;33.84;32.86
68511;SHT31;55512;50.102;19.958;2022-08-03T14:06:20;34.02;32.71
68511;SHT31;55512;50.102;19.958;2022-08-03T14:08:47;33.98;32.63
68511;SHT31;55512;50.102;19.958;2022-08-03T14:11:13;33.92;32.90
68511;SHT31;55512;50.102;19.958;2022-08-03T14:13:40;34.07;32.80
68511;SHT31;55512;50.102;19.958;2022-08-03T14:16:06;33.98;32.62
68511;SHT31;55512;50.102;19.958;2022-08-03T14:18:32;33.83;32.70
68511;SHT31;55512;50.102;19.958;2022-08-03T14:20:58;33.68;32.93
68511;SHT31;55512;50.102;19.958;2022-08-03T14:23:24;33.60;33.26
68511;SHT31;55512;50.102;19.958;2022-08-03T14:25:50;33.57;33.38
68511;SHT31;55512;50.102;19.958;2022-08-03T14:28:16;33.51;33.25
68511;SHT31;55512;50.102;19.958;2022-08-03T14:30:49;33.41;33.06
68511;SHT31;55512;50.102;19.958;2022-08-03T14:33:16;33.33;32.57
68511;SHT31;55512;50.102;19.958;2022-08-03T14:35:42;33.27;33.23
68511;SHT31;55512;50.102;19.958;2022-08-03T14:38:07;33.23;33.81
68511;SHT31;55512;50.102;19.958;2022-08-03T14:40:33;33.21;33.60
68511;SHT31;55512;50.102;19.958;2022-08-03T14:42:58;33.41;32.63
68511;SHT31;55512;50.102;19.958;2022-08-03T14:45:24;34.30;31.78
68511;SHT31;55512;50.102;19.958;2022-08-03T14:47:49;34.85;30.74
68511;SHT31;55512;50.102;19.958;2022-08-03T14:50:15;34.77;30.45
68511;SHT31;55512;50.102;19.958;2022-08-03T14:52:41;34.63;30.58
68511;SHT31;55512;50.102;19.958;2022-08-03T14:55:06;34.48;30.41
68511;SHT31;55512;50.102;19.958;2022-08-03T14:57:32;34.35;30.38
68511;SHT31;55512;50.102;19.958;2022-08-03T14:59:58;35.25;29.58
68511;SHT31;55512;50.102;19.958;2022-08-03T15:02:23;36.89;28.96
68511;SHT31;55512;50.102;19.958;2022-08-03T15:04:51;37.91;28.38
68511;SHT31;55512;50.102;19.958;2022-08-03T15:07:17;38.32;28.09
68511;SHT31;55512;50.102;19.958;2022-08-03T15:09:44;37.80;27.64
68511;SHT31;55512;50.102;19.958;2022-08-03T15:12:09;37.18;28.12
68511;SHT31;55512;50.102;19.958;2022-08-03T15:14:35;36.61;28.62
68511;SHT31;55512;50.102;19.958;2022-08-03T15:17:00;36.04;28.60
68511;SHT31;55512;50.102;19.958;2022-08-03T15:19:26;36.43;28.17
68511;SHT31;55512;50.102;19.958;2022-08-03T15:21:51;36.91;28.78
68511;SHT31;55512;50.102;19.958;2022-08-03T15:24:17;36.58;29.85
68511;SHT31;55512;50.102;19.958;2022-08-03T15:26:42;36.34;29.32
68511;SHT31;55512;50.102;19.958;2022-08-03T15:29:07;36.65;28.74
68511;SHT31;55512;50.102;19.958;2022-08-03T15:31:33;36.65;28.82
68511;SHT31;55512;50.102;19.958;2022-08-03T15:33:59;36.34;28.71
68511;SHT31;55512;50.102;19.958;2022-08-03T15:36:25;36.02;28.78
68511;SHT31;55512;50.102;19.958;2022-08-03T15:38:51;35.66;28.97
68511;SHT31;55512;50.102;19.958;2022-08-03T15:41:17;35.35;29.27
68511;SHT31;55512;50.102;19.958;2022-08-03T15:43:42;35.08;29.36
68511;SHT31;55512;50.102;19.958;2022-08-03T15:46:10;35.34;29.14
68511;SHT31;55512;50.102;19.958;2022-08-03T15:48:37;36.87;27.88
68511;SHT31;55512;50.102;19.958;2022-08-03T15:51:04;38.35;26.97
68511;SHT31;55512;50.102;19.958;2022-08-03T15:53:31;39.47;26.13
68511;SHT31;55512;50.102;19.958;2022-08-03T15:55:57;39.82;25.61
68511;SHT31;55512;50.102;19.958;2022-08-03T15:58:24;39.79;25.42
68511;SHT31;55512;50.102;19.958;2022-08-03T16:00:54;39.67;25.49
68511;SHT31;55512;50.102;19.958;2022-08-03T16:03:22;39.38;25.29
68511;SHT31;55512;50.102;19.958;2022-08-03T16:05:48;38.94;25.53
68511;SHT31;55512;50.102;19.958;2022-08-03T16:08:14;38.46;25.72
68511;SHT31;55512;50.102;19.958;2022-08-03T16:10:39;38.14;26.07
68511;SHT31;55512;50.102;19.958;2022-08-03T16:13:05;37.94;26.54
68511;SHT31;55512;50.102;19.958;2022-08-03T16:15:32;37.97;26.89
68511;SHT31;55512;50.102;19.958;2022-08-03T16:17:58;37.94;26.67
68511;SHT31;55512;50.102;19.958;2022-08-03T16:20:23;37.88;26.68
68511;SHT31;55512;50.102;19.958;2022-08-03T16:22:50;37.77;26.82